Cambridge, MA

11:20 PM EDT on August 20, 2014 (GMT -0400)
Porter Square | Change Station
CLOSE
Current Station
Personal Weather Station
Location: Cambridge, MA
Elevation: 47 ft
Nearby Weather Stations

Elev 47 ft 42.39 °N, 71.12 °W | Updated 5 minutes ago

Partly Cloudy
Partly Cloudy
65.5 °F
Feels Like 65.5 °F
N
0.0
Wind Variable Wind from North
Gusts 0.0 mph

Today
High -- | Low -- °F
--% Chance of Precip.
Yesterday
High -- | Low -- °F
Precip. -- in
5:56 AM 7:38 PM
Waning Crescent, 17% visible
Pressure 30.06 in
Visibility 10.0 miles
Clouds Few 30000 ft
Dew Point 62 °F
Humidity 88%
Rainfall 0.00 in
Snow Depth Not available.
UV 0 out of 12
Pollen 8.90 out of 12
Ozone Good
PM2.5 Good
Flu Activity Not available.
METAR KBOS 210254Z 00000KT 10SM FEW300 18/16 A3006 RMK AO2 SLP179 T01830161 51006

More Conditions Fewer Conditions

Pressure 30.06 in
Visibility 10.0 miles
Clouds Few 30000 ft
Dew Point 62 °F
Humidity 88%
Rainfall 0.00 in
Snow Depth Not available.
UV 0 out of 12
Pollen 8.90 out of 12
Ozone Good
PM2.5 Good
Flu Activity Not available.
METAR KBOS 210254Z 00000KT 10SM FEW300 18/16 A3006 RMK AO2 SLP179 T01830161 51006

More Conditions Fewer Conditions

10-Day Weather Forecast

Almanac

Astronomy

Aug. 20, 2014 Rise Set
Actual Time 5:56 AM EDT 7:38 PM EDT
Civil Twilight 5:27 AM EDT 8:07 PM EDT
Nautical Twilight 4:50 AM EDT 8:43 PM EDT
Astronomical Twilight 4:11 AM EDT 9:22 PM EDT
Moon 1:32 AM EDT (8/20) 4:22 PM EDT (8/20)
Length of Visible Light 14h 40m
Length of Day
13h 41m
Tomorrow will be 2m 37s shorter.
Waning Crescent, 17% of the Moon is Illuminated
Today
Waning Crescent
Aug 25
New
Sep 2
First Quarter
Sep 8
Full
Sep 15
Last Quarter

Today's Extremes

State Highs State Lows

Community

WunderPhotos

Upload Photos

1,745,841 photos uploaded!

Nearby

Air Quality

  Air Quality AQ Index Pollutant
Yesterday Good
PM2.5
Yesterday Good
OZONE
Current Good
PM2.5
Current Good
OZONE
Wednesday Good
PM2.5
Wednesday Good
OZONE
Thursday Good
PM2.5
Thursday Good
OZONE

Snow Depth

Station Depth Elevation
No new snow has been reported.

Earthquake Activity

City Distance Mag. Time & Date
Deep River Center, Connecticut 100 miles 2.7 3:09 AM EDT
2014-08-14
Minimum magnitude displayed is 2.5.

Coastal Water Temperatures

Place Temperature
Boston, MA 64.9 °F
Providence, RI 75.0 °F
Fall River, MA 75.0 °F
Conimicut Light, RI 73.9 °F

Nearby Weather Stations